sensor_id;sensor_type;location;lat;lon;timestamp;temperature;humidity
9951;DHT22;24074;49.254;6.702;2023-12-20T00:01:47;4.80;99.90
9951;DHT22;24074;49.254;6.702;2023-12-20T00:04:12;4.80;99.90
9951;DHT22;24074;49.254;6.702;2023-12-20T00:06:38;4.80;99.90
9951;DHT22;24074;49.254;6.702;2023-12-20T00:09:03;4.90;99.90
9951;DHT22;24074;49.254;6.702;2023-12-20T00:11:29;4.80;99.90
9951;DHT22;24074;49.254;6.702;2023-12-20T00:13:54;4.80;99.90
9951;DHT22;24074;49.254;6.702;2023-12-20T00:16:20;4.80;99.90
9951;DHT22;24074;49.254;6.702;2023-12-20T00:18:46;4.90;99.90
9951;DHT22;24074;49.254;6.702;2023-12-20T00:21:11;4.90;99.90
9951;DHT22;24074;49.254;6.702;2023-12-20T00:23:37;4.90;99.90
9951;DHT22;24074;49.254;6.702;2023-12-20T00:26:03;4.90;99.90
9951;DHT22;24074;49.254;6.702;2023-12-20T00:28:28;4.90;99.90
9951;DHT22;24074;49.254;6.702;2023-12-20T00:30:54;4.90;99.90
9951;DHT22;24074;49.254;6.702;2023-12-20T00:33:19;4.90;99.90
9951;DHT22;24074;49.254;6.702;2023-12-20T00:35:45;4.90;99.90
9951;DHT22;24074;49.254;6.702;2023-12-20T00:38:10;4.90;99.90
9951;DHT22;24074;49.254;6.702;2023-12-20T00:40:37;4.90;99.90
9951;DHT22;24074;49.254;6.702;2023-12-20T00:43:02;4.90;99.90
9951;DHT22;24074;49.254;6.702;2023-12-20T00:45:28;4.90;99.90
9951;DHT22;24074;49.254;6.702;2023-12-20T00:47:54;4.90;99.90
9951;DHT22;24074;49.254;6.702;2023-12-20T00:50:19;4.90;99.90
9951;DHT22;24074;49.254;6.702;2023-12-20T00:52:47;5.00;99.90
9951;DHT22;24074;49.254;6.702;2023-12-20T00:55:13;5.00;99.90
9951;DHT22;24074;49.254;6.702;2023-12-20T00:57:39;5.00;99.90
9951;DHT22;24074;49.254;6.702;2023-12-20T01:00:05;5.00;99.90
9951;DHT22;24074;49.254;6.702;2023-12-20T01:02:31;5.00;99.90
9951;DHT22;24074;49.254;6.702;2023-12-20T01:04:56;5.00;99.90
9951;DHT22;24074;49.254;6.702;2023-12-20T01:07:22;5.00;99.90
9951;DHT22;24074;49.254;6.702;2023-12-20T01:09:47;5.10;99.90
9951;DHT22;24074;49.254;6.702;2023-12-20T01:12:13;5.10;99.90
9951;DHT22;24074;49.254;6.702;2023-12-20T01:14:39;5.10;99.90
9951;DHT22;24074;49.254;6.702;2023-12-20T01:17:05;5.10;99.90
9951;DHT22;24074;49.254;6.702;2023-12-20T01:19:31;5.10;99.90
9951;DHT22;24074;49.254;6.702;2023-12-20T01:21:56;5.10;99.90
9951;DHT22;24074;49.254;6.702;2023-12-20T01:24:22;5.10;99.90
9951;DHT22;24074;49.254;6.702;2023-12-20T01:26:47;5.20;99.90
9951;DHT22;24074;49.254;6.702;2023-12-20T01:29:13;5.20;99.90
9951;DHT22;24074;49.254;6.702;2023-12-20T01:31:39;5.20;99.90
9951;DHT22;24074;49.254;6.702;2023-12-20T01:34:06;5.20;99.90
9951;DHT22;24074;49.254;6.702;2023-12-20T01:36:31;5.20;99.90
9951;DHT22;24074;49.254;6.702;2023-12-20T01:38:57;5.20;99.90
9951;DHT22;24074;49.254;6.702;2023-12-20T01:41:23;5.20;99.90
9951;DHT22;24074;49.254;6.702;2023-12-20T01:43:48;5.30;99.90
9951;DHT22;24074;49.254;6.702;2023-12-20T01:46:14;5.30;99.90
9951;DHT22;24074;49.254;6.702;2023-12-20T01:48:41;5.30;99.90
9951;DHT22;24074;49.254;6.702;2023-12-20T01:51:07;5.30;99.90
9951;DHT22;24074;49.254;6.702;2023-12-20T01:53:33;5.30;99.90
9951;DHT22;24074;49.254;6.702;2023-12-20T01:55:58;5.30;99.90
9951;DHT22;24074;49.254;6.702;2023-12-20T01:58:24;5.30;99.90
9951;DHT22;24074;49.254;6.702;2023-12-20T02:00:50;5.40;99.90
9951;DHT22;24074;49.254;6.702;2023-12-20T02:03:16;5.40;99.90
9951;DHT22;24074;49.254;6.702;2023-12-20T02:05:44;5.30;99.90
9951;DHT22;24074;49.254;6.702;2023-12-20T02:08:11;5.40;99.90
9951;DHT22;24074;49.254;6.702;2023-12-20T02:10:37;5.40;99.90
9951;DHT22;24074;49.254;6.702;2023-12-20T02:13:03;5.40;99.90
9951;DHT22;24074;49.254;6.702;2023-12-20T02:15:29;5.40;99.90
9951;DHT22;24074;49.254;6.702;2023-12-20T02:17:55;5.40;99.90
9951;DHT22;24074;49.254;6.702;2023-12-20T02:20:21;5.40;99.90
9951;DHT22;24074;49.254;6.702;2023-12-20T02:22:46;5.40;99.90
9951;DHT22;24074;49.254;6.702;2023-12-20T02:25:12;5.50;99.90
9951;DHT22;24074;49.254;6.702;2023-12-20T02:27:38;5.50;99.90
9951;DHT22;24074;49.254;6.702;2023-12-20T02:30:05;5.50;99.90
9951;DHT22;24074;49.254;6.702;2023-12-20T02:32:31;5.40;99.90
9951;DHT22;24074;49.254;6.702;2023-12-20T02:34:58;5.50;99.90
9951;DHT22;24074;49.254;6.702;2023-12-20T02:37:24;5.50;99.90
9951;DHT22;24074;49.254;6.702;2023-12-20T02:39:49;5.50;99.90
9951;DHT22;24074;49.254;6.702;2023-12-20T02:42:15;5.40;99.90
9951;DHT22;24074;49.254;6.702;2023-12-20T02:44:41;5.40;99.90
9951;DHT22;24074;49.254;6.702;2023-12-20T02:47:06;5.40;99.90
9951;DHT22;24074;49.254;6.702;2023-12-20T02:49:34;5.40;99.90
9951;DHT22;24074;49.254;6.702;2023-12-20T02:52:00;5.40;99.90
9951;DHT22;24074;49.254;6.702;2023-12-20T02:54:26;5.40;99.90
9951;DHT22;24074;49.254;6.702;2023-12-20T02:56:51;5.40;99.90
9951;DHT22;24074;49.254;6.702;2023-12-20T02:59:17;5.50;99.90
9951;DHT22;24074;49.254;6.702;2023-12-20T03:01:44;5.50;99.90
9951;DHT22;24074;49.254;6.702;2023-12-20T03:04:10;5.50;99.90
9951;DHT22;24074;49.254;6.702;2023-12-20T03:06:35;5.50;99.90
9951;DHT22;24074;49.254;6.702;2023-12-20T03:09:01;5.50;99.90
9951;DHT22;24074;49.254;6.702;2023-12-20T03:11:27;5.50;99.90
9951;DHT22;24074;49.254;6.702;2023-12-20T03:13:53;5.50;99.90
9951;DHT22;24074;49.254;6.702;2023-12-20T03:16:18;5.60;99.90
9951;DHT22;24074;49.254;6.702;2023-12-20T03:18:44;5.60;99.90
9951;DHT22;24074;49.254;6.702;2023-12-20T03:21:09;5.60;99.90
9951;DHT22;24074;49.254;6.702;2023-12-20T03:23:35;5.60;99.90
9951;DHT22;24074;49.254;6.702;2023-12-20T03:26:01;5.60;99.90
9951;DHT22;24074;49.254;6.702;2023-12-20T03:28:27;5.60;99.90
9951;DHT22;24074;49.254;6.702;2023-12-20T03:30:53;5.60;99.90
9951;DHT22;24074;49.254;6.702;2023-12-20T03:33:18;5.70;99.90
9951;DHT22;24074;49.254;6.702;2023-12-20T03:35:44;5.70;99.90
9951;DHT22;24074;49.254;6.702;2023-12-20T03:38:12;5.70;99.90
9951;DHT22;24074;49.254;6.702;2023-12-20T03:40:38;5.70;99.90
9951;DHT22;24074;49.254;6.702;2023-12-20T03:43:03;5.70;99.90
9951;DHT22;24074;49.254;6.702;2023-12-20T03:45:29;5.80;99.90
9951;DHT22;24074;49.254;6.702;2023-12-20T03:47:54;5.80;99.90
9951;DHT22;24074;49.254;6.702;2023-12-20T03:50:27;5.80;99.90
9951;DHT22;24074;49.254;6.702;2023-12-20T03:52:53;5.80;99.90
9951;DHT22;24074;49.254;6.702;2023-12-20T03:55:18;5.80;99.90
9951;DHT22;24074;49.254;6.702;2023-12-20T03:57:44;5.80;99.90
9951;DHT22;24074;49.254;6.702;2023-12-20T04:00:10;5.80;99.90
9951;DHT22;24074;49.254;6.702;2023-12-20T04:02:40;5.70;99.90
9951;DHT22;24074;49.254;6.702;2023-12-20T04:05:07;5.70;99.90
9951;DHT22;24074;49.254;6.702;2023-12-20T04:07:33;5.70;99.90
9951;DHT22;24074;49.254;6.702;2023-12-20T04:09:59;5.80;99.90
9951;DHT22;24074;49.254;6.702;2023-12-20T04:12:24;5.80;99.90
9951;DHT22;24074;49.254;6.702;2023-12-20T04:14:50;5.90;99.90
9951;DHT22;24074;49.254;6.702;2023-12-20T04:17:15;5.90;99.90
9951;DHT22;24074;49.254;6.702;2023-12-20T04:19:42;5.90;99.90
9951;DHT22;24074;49.254;6.702;2023-12-20T04:22:07;5.90;99.90
9951;DHT22;24074;49.254;6.702;2023-12-20T04:24:33;6.00;99.90
9951;DHT22;24074;49.254;6.702;2023-12-20T04:26:59;6.00;99.90
9951;DHT22;24074;49.254;6.702;2023-12-20T04:29:24;6.00;99.90
9951;DHT22;24074;49.254;6.702;2023-12-20T04:31:50;6.00;99.90
9951;DHT22;24074;49.254;6.702;2023-12-20T04:34:17;5.90;99.90
9951;DHT22;24074;49.254;6.702;2023-12-20T04:36:43;5.90;99.90
9951;DHT22;24074;49.254;6.702;2023-12-20T04:39:09;5.80;99.90
9951;DHT22;24074;49.254;6.702;2023-12-20T04:41:35;5.80;99.90
9951;DHT22;24074;49.254;6.702;2023-12-20T04:44:00;5.80;99.90
9951;DHT22;24074;49.254;6.702;2023-12-20T04:46:26;5.70;99.90
9951;DHT22;24074;49.254;6.702;2023-12-20T04:48:52;5.70;99.90
9951;DHT22;24074;49.254;6.702;2023-12-20T04:51:17;5.60;99.90
9951;DHT22;24074;49.254;6.702;2023-12-20T04:53:43;5.50;99.90
9951;DHT22;24074;49.254;6.702;2023-12-20T04:56:09;5.30;99.90
9951;DHT22;24074;49.254;6.702;2023-12-20T04:58:34;5.20;99.90
9951;DHT22;24074;49.254;6.702;2023-12-20T05:01:00;5.10;99.90
9951;DHT22;24074;49.254;6.702;2023-12-20T05:03:26;4.90;99.90
9951;DHT22;24074;49.254;6.702;2023-12-20T05:05:51;4.80;99.90
9951;DHT22;24074;49.254;6.702;2023-12-20T05:08:17;4.60;99.90
9951;DHT22;24074;49.254;6.702;2023-12-20T05:10:43;4.60;99.90
9951;DHT22;24074;49.254;6.702;2023-12-20T05:13:08;4.50;99.90
9951;DHT22;24074;49.254;6.702;2023-12-20T05:15:34;4.50;99.90
9951;DHT22;24074;49.254;6.702;2023-12-20T05:17:59;4.40;99.90
9951;DHT22;24074;49.254;6.702;2023-12-20T05:20:25;4.40;99.90
9951;DHT22;24074;49.254;6.702;2023-12-20T05:22:50;4.20;99.90
9951;DHT22;24074;49.254;6.702;2023-12-20T05:25:16;4.10;99.90
9951;DHT22;24074;49.254;6.702;2023-12-20T05:27:42;4.00;99.90
9951;DHT22;24074;49.254;6.702;2023-12-20T05:30:08;3.90;99.90
9951;DHT22;24074;49.254;6.702;2023-12-20T05:32:33;3.70;99.90
9951;DHT22;24074;49.254;6.702;2023-12-20T05:34:59;3.60;99.90
9951;DHT22;24074;49.254;6.702;2023-12-20T05:37:27;3.50;99.90
9951;DHT22;24074;49.254;6.702;2023-12-20T05:39:54;3.50;99.90
9951;DHT22;24074;49.254;6.702;2023-12-20T05:42:19;3.40;99.90
9951;DHT22;24074;49.254;6.702;2023-12-20T05:44:45;3.30;99.90
9951;DHT22;24074;49.254;6.702;2023-12-20T05:47:11;3.30;99.90
9951;DHT22;24074;49.254;6.702;2023-12-20T05:49:36;3.20;99.90
9951;DHT22;24074;49.254;6.702;2023-12-20T05:52:02;3.10;99.90
9951;DHT22;24074;49.254;6.702;2023-12-20T05:54:27;3.00;99.90
9951;DHT22;24074;49.254;6.702;2023-12-20T05:56:53;3.00;99.90
9951;DHT22;24074;49.254;6.702;2023-12-20T05:59:19;3.00;99.90
9951;DHT22;24074;49.254;6.702;2023-12-20T06:01:44;3.20;99.90
9951;DHT22;24074;49.254;6.702;2023-12-20T06:04:10;3.30;99.90
9951;DHT22;24074;49.254;6.702;2023-12-20T06:06:43;3.30;99.90
9951;DHT22;24074;49.254;6.702;2023-12-20T06:09:09;3.20;99.90
9951;DHT22;24074;49.254;6.702;2023-12-20T06:11:37;3.20;99.90
9951;DHT22;24074;49.254;6.702;2023-12-20T06:14:03;3.10;99.90
9951;DHT22;24074;49.254;6.702;2023-12-20T06:16:29;3.10;99.90
9951;DHT22;24074;49.254;6.702;2023-12-20T06:18:54;3.10;99.90
9951;DHT22;24074;49.254;6.702;2023-12-20T06:21:20;3.20;99.90
9951;DHT22;24074;49.254;6.702;2023-12-20T06:23:46;3.30;99.90
9951;DHT22;24074;49.254;6.702;2023-12-20T06:26:12;3.30;99.90
9951;DHT22;24074;49.254;6.702;2023-12-20T06:28:37;3.30;99.90
9951;DHT22;24074;49.254;6.702;2023-12-20T06:31:03;3.40;99.90
9951;DHT22;24074;49.254;6.702;2023-12-20T06:33:29;3.40;99.90
9951;DHT22;24074;49.254;6.702;2023-12-20T06:35:56;3.30;99.90
9951;DHT22;24074;49.254;6.702;2023-12-20T06:38:22;3.30;99.90
9951;DHT22;24074;49.254;6.702;2023-12-20T06:40:48;3.30;99.90
9951;DHT22;24074;49.254;6.702;2023-12-20T06:43:13;3.40;99.90
9951;DHT22;24074;49.254;6.702;2023-12-20T06:45:39;3.40;99.90
9951;DHT22;24074;49.254;6.702;2023-12-20T06:48:05;3.40;99.90
9951;DHT22;24074;49.254;6.702;2023-12-20T06:50:31;3.40;99.90
9951;DHT22;24074;49.254;6.702;2023-12-20T06:52:56;3.50;99.90
9951;DHT22;24074;49.254;6.702;2023-12-20T06:55:22;3.50;99.90
9951;DHT22;24074;49.254;6.702;2023-12-20T06:57:48;3.60;99.90
9951;DHT22;24074;49.254;6.702;2023-12-20T07:00:14;3.60;99.90
9951;DHT22;24074;49.254;6.702;2023-12-20T07:02:40;3.60;99.90
9951;DHT22;24074;49.254;6.702;2023-12-20T07:05:06;3.60;99.90
9951;DHT22;24074;49.254;6.702;2023-12-20T07:07:31;3.60;99.90
9951;DHT22;24074;49.254;6.702;2023-12-20T07:09:57;3.50;99.90
9951;DHT22;24074;49.254;6.702;2023-12-20T07:12:23;3.50;99.90
9951;DHT22;24074;49.254;6.702;2023-12-20T07:14:48;3.60;99.90
9951;DHT22;24074;49.254;6.702;2023-12-20T07:17:14;3.70;99.90
9951;DHT22;24074;49.254;6.702;2023-12-20T07:19:41;3.70;99.90
9951;DHT22;24074;49.254;6.702;2023-12-20T07:22:07;3.80;99.90
9951;DHT22;24074;49.254;6.702;2023-12-20T07:24:33;3.80;99.90
9951;DHT22;24074;49.254;6.702;2023-12-20T07:27:02;3.80;99.90
9951;DHT22;24074;49.254;6.702;2023-12-20T07:29:27;3.90;99.90
9951;DHT22;24074;49.254;6.702;2023-12-20T07:31:54;3.90;99.90
9951;DHT22;24074;49.254;6.702;2023-12-20T07:34:22;3.90;99.90
9951;DHT22;24074;49.254;6.702;2023-12-20T07:36:48;3.90;99.90
9951;DHT22;24074;49.254;6.702;2023-12-20T07:39:14;4.00;99.90
9951;DHT22;24074;49.254;6.702;2023-12-20T07:41:40;4.00;99.90
9951;DHT22;24074;49.254;6.702;2023-12-20T07:44:06;4.10;99.90
9951;DHT22;24074;49.254;6.702;2023-12-20T07:46:32;4.10;99.90
9951;DHT22;24074;49.254;6.702;2023-12-20T07:48:57;4.30;99.90
9951;DHT22;24074;49.254;6.702;2023-12-20T07:51:23;4.50;99.90
9951;DHT22;24074;49.254;6.702;2023-12-20T07:53:48;4.70;99.90
9951;DHT22;24074;49.254;6.702;2023-12-20T07:56:16;4.60;99.90
9951;DHT22;24074;49.254;6.702;2023-12-20T07:58:41;4.60;99.90
9951;DHT22;24074;49.254;6.702;2023-12-20T08:01:07;4.60;99.90
9951;DHT22;24074;49.254;6.702;2023-12-20T08:03:33;4.60;99.90
9951;DHT22;24074;49.254;6.702;2023-12-20T08:05:58;4.60;99.90
9951;DHT22;24074;49.254;6.702;2023-12-20T08:08:25;4.60;99.90
9951;DHT22;24074;49.254;6.702;2023-12-20T08:10:50;4.60;99.90
9951;DHT22;24074;49.254;6.702;2023-12-20T08:13:16;4.60;99.90
9951;DHT22;24074;49.254;6.702;2023-12-20T08:15:41;4.60;99.90
9951;DHT22;24074;49.254;6.702;2023-12-20T08:18:07;4.60;99.90
9951;DHT22;24074;49.254;6.702;2023-12-20T08:20:33;4.70;99.90
9951;DHT22;24074;49.254;6.702;2023-12-20T08:22:58;4.70;99.90
9951;DHT22;24074;49.254;6.702;2023-12-20T08:25:24;4.70;99.90
9951;DHT22;24074;49.254;6.702;2023-12-20T08:27:49;4.80;99.90
9951;DHT22;24074;49.254;6.702;2023-12-20T08:30:15;4.80;99.90
9951;DHT22;24074;49.254;6.702;2023-12-20T08:32:43;4.80;99.90
9951;DHT22;24074;49.254;6.702;2023-12-20T08:35:08;4.80;99.90
9951;DHT22;24074;49.254;6.702;2023-12-20T08:37:34;4.80;99.90
9951;DHT22;24074;49.254;6.702;2023-12-20T08:40:01;4.80;99.90
9951;DHT22;24074;49.254;6.702;2023-12-20T08:42:26;4.90;99.90
9951;DHT22;24074;49.254;6.702;2023-12-20T08:44:56;5.00;99.90
9951;DHT22;24074;49.254;6.702;2023-12-20T08:47:23;5.00;99.90
9951;DHT22;24074;49.254;6.702;2023-12-20T08:49:48;5.10;99.90
9951;DHT22;24074;49.254;6.702;2023-12-20T08:52:14;5.10;99.90
9951;DHT22;24074;49.254;6.702;2023-12-20T08:54:39;5.10;99.90
9951;DHT22;24074;49.254;6.702;2023-12-20T08:57:07;5.10;99.90
9951;DHT22;24074;49.254;6.702;2023-12-20T08:59:33;5.20;99.90
9951;DHT22;24074;49.254;6.702;2023-12-20T09:01:59;5.30;99.90
9951;DHT22;24074;49.254;6.702;2023-12-20T09:04:25;5.30;99.90
9951;DHT22;24074;49.254;6.702;2023-12-20T09:06:50;5.30;99.90
9951;DHT22;24074;49.254;6.702;2023-12-20T09:09:16;5.20;99.90
9951;DHT22;24074;49.254;6.702;2023-12-20T09:11:42;5.30;99.90
9951;DHT22;24074;49.254;6.702;2023-12-20T09:14:08;5.30;99.90
9951;DHT22;24074;49.254;6.702;2023-12-20T09:16:33;5.40;99.90
9951;DHT22;24074;49.254;6.702;2023-12-20T09:18:59;5.40;99.90
9951;DHT22;24074;49.254;6.702;2023-12-20T09:21:24;5.40;99.90
9951;DHT22;24074;49.254;6.702;2023-12-20T09:23:50;5.50;99.90
9951;DHT22;24074;49.254;6.702;2023-12-20T09:26:15;5.40;99.90
9951;DHT22;24074;49.254;6.702;2023-12-20T09:28:41;5.40;99.90
9951;DHT22;24074;49.254;6.702;2023-12-20T09:31:06;5.50;99.90
9951;DHT22;24074;49.254;6.702;2023-12-20T09:33:33;5.60;99.90
9951;DHT22;24074;49.254;6.702;2023-12-20T09:35:59;5.70;99.90
9951;DHT22;24074;49.254;6.702;2023-12-20T09:38:24;5.70;99.90
9951;DHT22;24074;49.254;6.702;2023-12-20T09:40:50;5.70;99.90
9951;DHT22;24074;49.254;6.702;2023-12-20T09:43:18;5.70;99.90
9951;DHT22;24074;49.254;6.702;2023-12-20T09:45:46;5.80;99.90
9951;DHT22;24074;49.254;6.702;2023-12-20T09:48:12;5.80;99.90
9951;DHT22;24074;49.254;6.702;2023-12-20T09:50:40;5.80;99.90
9951;DHT22;24074;49.254;6.702;2023-12-20T09:53:08;5.90;99.90
9951;DHT22;24074;49.254;6.702;2023-12-20T09:55:35;5.80;99.90
9951;DHT22;24074;49.254;6.702;2023-12-20T09:58:01;5.70;99.90
9951;DHT22;24074;49.254;6.702;2023-12-20T10:00:27;5.70;99.90
9951;DHT22;24074;49.254;6.702;2023-12-20T10:02:59;5.70;99.90
9951;DHT22;24074;49.254;6.702;2023-12-20T10:05:29;5.60;99.90
9951;DHT22;24074;49.254;6.702;2023-12-20T10:07:55;5.60;99.90
9951;DHT22;24074;49.254;6.702;2023-12-20T10:10:22;5.60;99.90
9951;DHT22;24074;49.254;6.702;2023-12-20T10:13:07;5.70;99.90
9951;DHT22;24074;49.254;6.702;2023-12-20T10:15:34;5.70;99.90
9951;DHT22;24074;49.254;6.702;2023-12-20T10:18:00;5.70;99.90
9951;DHT22;24074;49.254;6.702;2023-12-20T10:20:27;5.70;99.90
9951;DHT22;24074;49.254;6.702;2023-12-20T10:22:55;5.80;99.90
9951;DHT22;24074;49.254;6.702;2023-12-20T10:25:21;6.00;99.90
9951;DHT22;24074;49.254;6.702;2023-12-20T10:27:47;6.10;99.90
9951;DHT22;24074;49.254;6.702;2023-12-20T10:30:14;6.20;99.90
9951;DHT22;24074;49.254;6.702;2023-12-20T10:32:39;7.30;99.90
9951;DHT22;24074;49.254;6.702;2023-12-20T10:35:06;8.90;99.90
9951;DHT22;24074;49.254;6.702;2023-12-20T10:37:35;11.40;99.90
9951;DHT22;24074;49.254;6.702;2023-12-20T10:40:03;11.30;99.90
9951;DHT22;24074;49.254;6.702;2023-12-20T10:42:31;10.90;99.90
9951;DHT22;24074;49.254;6.702;2023-12-20T10:44:59;9.60;99.90
9951;DHT22;24074;49.254;6.702;2023-12-20T10:47:25;8.80;99.90
9951;DHT22;24074;49.254;6.702;2023-12-20T10:49:54;8.70;99.90
9951;DHT22;24074;49.254;6.702;2023-12-20T10:52:24;11.80;99.90
9951;DHT22;24074;49.254;6.702;2023-12-20T10:54:52;14.00;99.90
9951;DHT22;24074;49.254;6.702;2023-12-20T10:57:18;12.30;99.90
9951;DHT22;24074;49.254;6.702;2023-12-20T10:59:45;10.10;99.90
9951;DHT22;24074;49.254;6.702;2023-12-20T11:02:14;9.30;99.90
9951;DHT22;24074;49.254;6.702;2023-12-20T11:04:59;8.30;99.90
9951;DHT22;24074;49.254;6.702;2023-12-20T11:07:35;7.60;99.90
9951;DHT22;24074;49.254;6.702;2023-12-20T11:12:49;7.50;99.90
9951;DHT22;24074;49.254;6.702;2023-12-20T11:15:17;7.50;99.90
9951;DHT22;24074;49.254;6.702;2023-12-20T11:17:47;8.10;99.90
9951;DHT22;24074;49.254;6.702;2023-12-20T11:20:23;8.00;99.90
9951;DHT22;24074;49.254;6.702;2023-12-20T11:22:53;7.60;99.90
9951;DHT22;24074;49.254;6.702;2023-12-20T11:25:19;7.40;99.90
9951;DHT22;24074;49.254;6.702;2023-12-20T11:30:48;6.90;99.90
9951;DHT22;24074;49.254;6.702;2023-12-20T11:33:15;6.60;99.90
9951;DHT22;24074;49.254;6.702;2023-12-20T11:35:41;6.60;99.90
9951;DHT22;24074;49.254;6.702;2023-12-20T11:38:10;6.60;99.90
9951;DHT22;24074;49.254;6.702;2023-12-20T11:40:36;6.60;99.90
9951;DHT22;24074;49.254;6.702;2023-12-20T11:43:02;6.60;99.90
9951;DHT22;24074;49.254;6.702;2023-12-20T11:45:28;6.60;99.90
9951;DHT22;24074;49.254;6.702;2023-12-20T11:47:54;6.70;99.90
9951;DHT22;24074;49.254;6.702;2023-12-20T11:50:23;6.70;99.90
9951;DHT22;24074;49.254;6.702;2023-12-20T11:52:50;6.80;99.90
9951;DHT22;24074;49.254;6.702;2023-12-20T11:55:19;6.70;99.90
9951;DHT22;24074;49.254;6.702;2023-12-20T11:57:44;6.80;99.90
9951;DHT22;24074;49.254;6.702;2023-12-20T12:00:10;6.80;99.90
9951;DHT22;24074;49.254;6.702;2023-12-20T12:02:36;6.80;99.90
9951;DHT22;24074;49.254;6.702;2023-12-20T12:05:02;6.80;99.90
9951;DHT22;24074;49.254;6.702;2023-12-20T12:07:30;6.90;99.90
9951;DHT22;24074;49.254;6.702;2023-12-20T12:09:56;6.90;99.90
9951;DHT22;24074;49.254;6.702;2023-12-20T12:12:21;6.90;99.90
9951;DHT22;24074;49.254;6.702;2023-12-20T12:14:48;6.90;99.90
9951;DHT22;24074;49.254;6.702;2023-12-20T12:17:14;6.70;99.90
9951;DHT22;24074;49.254;6.702;2023-12-20T12:19:41;6.70;99.90
9951;DHT22;24074;49.254;6.702;2023-12-20T12:22:12;6.70;99.90
9951;DHT22;24074;49.254;6.702;2023-12-20T12:24:43;6.80;99.90
9951;DHT22;24074;49.254;6.702;2023-12-20T12:27:09;6.90;99.90
9951;DHT22;24074;49.254;6.702;2023-12-20T12:29:36;6.90;99.90
9951;DHT22;24074;49.254;6.702;2023-12-20T12:32:09;6.80;99.90
9951;DHT22;24074;49.254;6.702;2023-12-20T12:34:35;6.70;99.90
9951;DHT22;24074;49.254;6.702;2023-12-20T12:37:03;6.70;99.90
9951;DHT22;24074;49.254;6.702;2023-12-20T12:39:29;6.60;99.90
9951;DHT22;24074;49.254;6.702;2023-12-20T12:41:56;6.60;99.90
9951;DHT22;24074;49.254;6.702;2023-12-20T12:44:22;6.60;99.90
9951;DHT22;24074;49.254;6.702;2023-12-20T12:46:50;6.60;99.90
9951;DHT22;24074;49.254;6.702;2023-12-20T12:49:17;6.70;99.90
9951;DHT22;24074;49.254;6.702;2023-12-20T12:51:43;6.70;99.90
9951;DHT22;24074;49.254;6.702;2023-12-20T12:54:09;6.70;99.90
9951;DHT22;24074;49.254;6.702;2023-12-20T12:56:35;6.70;99.90
9951;DHT22;24074;49.254;6.702;2023-12-20T12:59:01;6.70;99.90
9951;DHT22;24074;49.254;6.702;2023-12-20T13:01:27;6.70;99.90
9951;DHT22;24074;49.254;6.702;2023-12-20T13:03:53;6.80;99.90
9951;DHT22;24074;49.254;6.702;2023-12-20T13:06:19;6.70;99.90
9951;DHT22;24074;49.254;6.702;2023-12-20T13:08:45;6.70;99.90
9951;DHT22;24074;49.254;6.702;2023-12-20T13:11:11;6.80;99.90
9951;DHT22;24074;49.254;6.702;2023-12-20T13:13:36;6.80;99.90
9951;DHT22;24074;49.254;6.702;2023-12-20T13:16:02;6.70;99.90
9951;DHT22;24074;49.254;6.702;2023-12-20T13:18:28;6.70;99.90
9951;DHT22;24074;49.254;6.702;2023-12-20T13:20:53;6.80;99.90
9951;DHT22;24074;49.254;6.702;2023-12-20T13:23:19;6.70;99.90
9951;DHT22;24074;49.254;6.702;2023-12-20T13:25:46;6.70;99.90
9951;DHT22;24074;49.254;6.702;2023-12-20T13:28:12;6.70;99.90
9951;DHT22;24074;49.254;6.702;2023-12-20T13:30:38;6.70;99.90
9951;DHT22;24074;49.254;6.702;2023-12-20T13:33:04;6.70;99.90
9951;DHT22;24074;49.254;6.702;2023-12-20T13:35:30;6.70;99.90
9951;DHT22;24074;49.254;6.702;2023-12-20T13:37:57;6.70;99.90
9951;DHT22;24074;49.254;6.702;2023-12-20T13:40:23;6.70;99.90
9951;DHT22;24074;49.254;6.702;2023-12-20T13:42:48;6.70;99.90
9951;DHT22;24074;49.254;6.702;2023-12-20T13:45:14;6.70;99.90
9951;DHT22;24074;49.254;6.702;2023-12-20T13:47:42;6.80;99.90
9951;DHT22;24074;49.254;6.702;2023-12-20T13:50:08;6.90;99.90
9951;DHT22;24074;49.254;6.702;2023-12-20T13:52:35;7.00;99.90
9951;DHT22;24074;49.254;6.702;2023-12-20T13:55:00;7.00;99.90
9951;DHT22;24074;49.254;6.702;2023-12-20T13:57:26;6.90;99.90
9951;DHT22;24074;49.254;6.702;2023-12-20T13:59:51;6.90;99.90
9951;DHT22;24074;49.254;6.702;2023-12-20T14:02:17;6.80;99.90
9951;DHT22;24074;49.254;6.702;2023-12-20T14:04:42;6.80;99.90
9951;DHT22;24074;49.254;6.702;2023-12-20T14:07:08;6.70;99.90
9951;DHT22;24074;49.254;6.702;2023-12-20T14:09:35;6.70;99.90
9951;DHT22;24074;49.254;6.702;2023-12-20T14:12:01;6.70;99.90
9951;DHT22;24074;49.254;6.702;2023-12-20T14:14:26;6.60;99.90
9951;DHT22;24074;49.254;6.702;2023-12-20T14:16:52;6.60;99.90
9951;DHT22;24074;49.254;6.702;2023-12-20T14:19:17;6.50;99.90
9951;DHT22;24074;49.254;6.702;2023-12-20T14:21:43;6.50;99.90
9951;DHT22;24074;49.254;6.702;2023-12-20T14:24:13;6.50;99.90
9951;DHT22;24074;49.254;6.702;2023-12-20T14:26:40;6.50;99.90
9951;DHT22;24074;49.254;6.702;2023-12-20T14:29:06;6.50;99.90
9951;DHT22;24074;49.254;6.702;2023-12-20T14:31:35;6.50;99.90
9951;DHT22;24074;49.254;6.702;2023-12-20T14:34:04;6.40;99.90
9951;DHT22;24074;49.254;6.702;2023-12-20T14:36:30;6.50;99.90
9951;DHT22;24074;49.254;6.702;2023-12-20T14:38:58;6.40;99.90
9951;DHT22;24074;49.254;6.702;2023-12-20T14:41:24;6.40;99.90
9951;DHT22;24074;49.254;6.702;2023-12-20T14:43:51;6.40;99.90
9951;DHT22;24074;49.254;6.702;2023-12-20T14:46:19;6.40;99.90
9951;DHT22;24074;49.254;6.702;2023-12-20T14:48:45;6.30;99.90
9951;DHT22;24074;49.254;6.702;2023-12-20T14:51:11;6.20;99.90
9951;DHT22;24074;49.254;6.702;2023-12-20T14:53:38;6.20;99.90
9951;DHT22;24074;49.254;6.702;2023-12-20T14:56:04;6.20;99.90
9951;DHT22;24074;49.254;6.702;2023-12-20T14:58:31;6.20;99.90
9951;DHT22;24074;49.254;6.702;2023-12-20T15:00:57;6.20;99.90
9951;DHT22;24074;49.254;6.702;2023-12-20T15:03:23;6.10;99.90
9951;DHT22;24074;49.254;6.702;2023-12-20T15:05:49;6.10;99.90
9951;DHT22;24074;49.254;6.702;2023-12-20T15:08:15;6.10;99.90
9951;DHT22;24074;49.254;6.702;2023-12-20T15:10:41;6.10;99.90
9951;DHT22;24074;49.254;6.702;2023-12-20T15:13:06;6.10;99.90
9951;DHT22;24074;49.254;6.702;2023-12-20T15:15:32;6.10;99.90
9951;DHT22;24074;49.254;6.702;2023-12-20T15:17:59;6.10;99.90
9951;DHT22;24074;49.254;6.702;2023-12-20T15:20:25;6.10;99.90
9951;DHT22;24074;49.254;6.702;2023-12-20T15:22:50;6.00;99.90
9951;DHT22;24074;49.254;6.702;2023-12-20T15:25:16;6.00;99.90
9951;DHT22;24074;49.254;6.702;2023-12-20T15:27:47;6.00;99.90
9951;DHT22;24074;49.254;6.702;2023-12-20T15:30:21;6.00;99.90
9951;DHT22;24074;49.254;6.702;2023-12-20T15:32:47;5.90;99.90
9951;DHT22;24074;49.254;6.702;2023-12-20T15:35:12;5.90;99.90
9951;DHT22;24074;49.254;6.702;2023-12-20T15:37:42;5.80;99.90
9951;DHT22;24074;49.254;6.702;2023-12-20T15:40:08;5.80;99.90
9951;DHT22;24074;49.254;6.702;2023-12-20T15:42:38;5.90;99.90
9951;DHT22;24074;49.254;6.702;2023-12-20T15:45:05;5.80;99.90
9951;DHT22;24074;49.254;6.702;2023-12-20T15:47:31;5.80;99.90
9951;DHT22;24074;49.254;6.702;2023-12-20T15:49:56;5.80;99.90
9951;DHT22;24074;49.254;6.702;2023-12-20T15:52:22;5.80;99.90
9951;DHT22;24074;49.254;6.702;2023-12-20T15:54:48;5.90;99.90
9951;DHT22;24074;49.254;6.702;2023-12-20T15:57:14;5.90;99.90
9951;DHT22;24074;49.254;6.702;2023-12-20T15:59:43;5.90;99.90
9951;DHT22;24074;49.254;6.702;2023-12-20T16:02:08;5.90;99.90